Time;durP1;ratioP1;P1;durP2;ratioP2;P2;SDS_P1;SDS_P2;PMS_P1;PMS_P2;Temp;Humidity;BMP_temperature;BMP_pressure;BME280_temperature;BME280_humidity;BME280_pressure;Samples;Min_cycle;Max_cycle;Signal;HPM_P1;HPM_P2
2021/12/28 00:01:21;;;;;;;39.00;16.17;;;;;;;13.07;60.47;98464.28;4823893;29;20549;-90
2021/12/28 00:04:09;;;;;;;41.87;15.60;;;;;;;12.98;61.16;98458.81;4841037;29;20218;-91
2021/12/28 00:07:17;;;;;;;33.17;13.80;;;;;;;12.91;60.89;98461.91;4841770;29;20223;-91
2021/12/28 00:12:43;;;;;;;29.23;15.13;;;;;;;12.94;60.94;98471.38;4858693;29;20698;-91
2021/12/28 00:18:58;;;;;;;30.23;14.17;;;;;;;12.91;61.00;98485.59;4843065;29;20185;-91
2021/12/28 00:21:49;;;;;;;29.07;14.30;;;;;;;12.86;61.07;98474.56;4842132;29;20262;-91
2021/12/28 00:24:56;;;;;;;33.63;14.57;;;;;;;12.80;61.33;98475.00;4841538;29;20193;-91
2021/12/28 00:27:44;;;;;;;29.17;15.07;;;;;;;12.83;61.19;98481.81;4841655;29;20170;-91
2021/12/28 00:30:33;;;;;;;34.43;16.80;;;;;;;12.83;60.59;98485.28;4841825;29;20282;-90
2021/12/28 00:33:47;;;;;;;35.23;15.70;;;;;;;12.77;61.03;98477.84;4842576;29;20217;-91
2021/12/28 00:36:48;;;;;;;38.07;17.50;;;;;;;12.63;61.08;98482.41;4840746;29;20208;-90
2021/12/28 00:39:27;;;;;;;30.73;14.87;;;;;;;12.58;61.52;98479.28;4858871;29;20311;-90
2021/12/28 00:41:53;;;;;;;36.47;15.87;;;;;;;12.54;61.18;98475.16;4859247;29;20423;-87
2021/12/28 00:44:19;;;;;;;38.47;17.80;;;;;;;12.54;61.14;98476.00;4858957;29;20274;-87
2021/12/28 00:46:45;;;;;;;39.27;17.37;;;;;;;12.29;61.68;98473.41;4858222;29;20201;-87
2021/12/28 00:49:10;;;;;;;35.33;15.73;;;;;;;12.28;61.96;98469.13;4857371;29;20207;-86
2021/12/28 00:51:37;;;;;;;33.83;14.97;;;;;;;12.25;61.35;98470.19;4859015;29;20220;-86
2021/12/28 00:54:06;;;;;;;44.53;16.10;;;;;;;12.22;61.85;98480.06;4859605;29;20275;-86
2021/12/28 00:56:31;;;;;;;29.40;15.50;;;;;;;12.22;61.47;98485.31;4860550;29;20259;-86
2021/12/28 00:58:57;;;;;;;30.63;16.37;;;;;;;12.20;61.27;98476.69;4860533;29;20244;-87
2021/12/28 01:01:22;;;;;;;34.37;15.63;;;;;;;12.13;61.44;98480.72;4860753;29;20241;-86
2021/12/28 01:03:48;;;;;;;27.80;14.90;;;;;;;12.00;61.24;98477.25;4859598;29;20176;-87
2021/12/28 01:06:13;;;;;;;34.83;14.33;;;;;;;11.98;61.66;98471.22;4856129;29;20678;-87
2021/12/28 01:08:42;;;;;;;36.10;16.50;;;;;;;11.81;61.67;98475.03;4841107;29;20189;-86
2021/12/28 01:11:07;;;;;;;33.87;15.40;;;;;;;11.82;61.80;98465.38;4840991;29;20250;-86
2021/12/28 01:13:33;;;;;;;27.63;13.23;;;;;;;11.65;62.18;98472.56;4842880;29;20216;-86
2021/12/28 01:16:02;;;;;;;28.23;15.20;;;;;;;11.57;62.25;98469.63;4841016;29;20192;-86
2021/12/28 01:18:28;;;;;;;31.23;14.37;;;;;;;11.57;62.49;98467.00;4845630;29;20272;-87
2021/12/28 01:20:53;;;;;;;35.47;14.87;;;;;;;11.52;62.38;98466.47;4867961;29;20596;-86
2021/12/28 01:23:19;;;;;;;32.77;15.33;;;;;;;11.51;62.40;98461.31;4878692;29;20188;-87
2021/12/28 01:25:45;;;;;;;40.70;14.93;;;;;;;11.45;62.11;98465.16;4863807;29;20890;-86
2021/12/28 01:28:11;;;;;;;31.77;14.70;;;;;;;11.57;62.08;98467.00;4859899;29;20226;-87
2021/12/28 01:30:39;;;;;;;35.07;12.97;;;;;;;11.31;62.40;98470.50;4860546;29;20184;-86
2021/12/28 01:33:04;;;;;;;32.57;13.63;;;;;;;11.02;63.55;98463.72;4860234;29;20181;-86
2021/12/28 01:35:31;;;;;;;30.13;15.70;;;;;;;10.93;64.60;98461.66;4861614;29;20536;-87
2021/12/28 01:37:58;;;;;;;37.90;15.60;;;;;;;10.82;64.86;98467.59;4862557;29;20206;-87
2021/12/28 01:40:28;;;;;;;37.43;14.97;;;;;;;10.76;64.88;98467.16;4862220;29;20202;-87
2021/12/28 01:43:00;;;;;;;29.37;13.50;;;;;;;10.75;64.70;98457.59;4862375;29;20180;-87
2021/12/28 01:45:50;;;;;;;33.23;14.20;;;;;;;10.79;64.51;98457.34;4863319;29;20196;-86
2021/12/28 01:48:19;;;;;;;31.70;15.27;;;;;;;10.82;64.37;98464.16;4863319;29;20200;-86
2021/12/28 01:50:46;;;;;;;28.50;13.93;;;;;;;10.83;64.27;98463.22;4862270;29;20195;-87
2021/12/28 01:53:13;;;;;;;31.10;13.37;;;;;;;10.90;64.62;98467.13;4863212;29;20196;-87
2021/12/28 01:55:41;;;;;;;25.90;12.63;;;;;;;10.78;64.24;98467.91;4862256;29;20200;-86
2021/12/28 01:58:07;;;;;;;29.53;13.60;;;;;;;10.78;64.45;98473.16;4863096;29;20272;-87
2021/12/28 02:00:33;;;;;;;38.43;14.33;;;;;;;10.76;64.47;98472.41;4862774;29;20271;-87
2021/12/28 02:02:59;;;;;;;30.30;13.43;;;;;;;10.81;64.52;98475.56;4863203;29;20276;-87
2021/12/28 02:05:25;;;;;;;30.97;13.33;;;;;;;10.57;64.95;98474.50;4862073;29;20193;-87
2021/12/28 02:07:51;;;;;;;30.33;13.93;;;;;;;10.49;65.07;98472.38;4862041;29;20196;-87
2021/12/28 02:10:17;;;;;;;25.47;13.60;;;;;;;10.58;65.06;98468.34;4862262;29;20719;-87
2021/12/28 02:12:43;;;;;;;37.93;15.87;;;;;;;10.62;65.12;98461.94;4861832;29;20212;-87
2021/12/28 02:15:13;;;;;;;28.77;13.67;;;;;;;10.28;66.59;98464.06;4856780;29;20252;-87
2021/12/28 02:17:39;;;;;;;30.90;14.80;;;;;;;10.19;67.20;98467.28;4861542;29;20271;-87
2021/12/28 02:20:15;;;;;;;30.70;15.00;;;;;;;10.11;67.26;98464.25;4860916;29;20272;-87
2021/12/28 02:22:41;;;;;;;29.30;14.87;;;;;;;9.98;67.94;98460.69;4861636;29;20266;-87
2021/12/28 02:25:28;;;;;;;27.33;11.03;;;;;;;9.92;68.64;98453.22;4861361;29;20248;-87
2021/12/28 02:27:54;;;;;;;24.43;12.63;;;;;;;9.88;68.70;98462.16;4863168;29;20558;-87
2021/12/28 02:30:21;;;;;;;24.43;11.73;;;;;;;9.75;69.49;98458.59;4854544;29;20275;-87
2021/12/28 02:32:48;;;;;;;27.03;12.50;;;;;;;9.81;69.90;98464.31;4858023;29;20295;-87
2021/12/28 02:35:23;;;;;;;34.40;15.07;;;;;;;9.98;69.04;98458.09;4861535;29;20185;-87
2021/12/28 02:37:49;;;;;;;31.80;14.80;;;;;;;9.96;68.83;98459.13;4861558;29;20574;-87
2021/12/28 02:40:17;;;;;;;30.17;14.70;;;;;;;9.79;68.52;98460.97;4861390;29;20196;-87
2021/12/28 02:42:43;;;;;;;29.97;14.63;;;;;;;9.79;68.53;98454.88;4860855;29;20271;-87
2021/12/28 02:45:33;;;;;;;35.27;15.67;;;;;;;9.83;68.20;98464.22;4861060;29;20283;-86
2021/12/28 02:47:59;;;;;;;26.20;13.23;;;;;;;9.86;67.81;98469.28;4861898;29;20260;-87
2021/12/28 02:50:30;;;;;;;27.73;12.90;;;;;;;9.93;67.03;98469.75;4861314;29;20189;-86
2021/12/28 02:52:56;;;;;;;27.40;13.40;;;;;;;9.91;66.58;98469.84;4861232;29;20256;-86
2021/12/28 02:55:24;;;;;;;30.13;14.43;;;;;;;9.82;66.28;98470.41;4862411;29;20200;-87
2021/12/28 02:58:05;;;;;;;40.37;14.20;;;;;;;9.41;67.37;98472.03;4861464;29;20548;-86
2021/12/28 03:00:44;;;;;;;22.40;10.67;;;;;;;9.34;68.78;98475.91;4861434;29;20213;-87
2021/12/28 03:03:19;;;;;;;26.13;13.13;;;;;;;9.37;68.88;98460.88;4861096;29;20736;-87
2021/12/28 03:05:52;;;;;;;27.80;11.20;;;;;;;9.37;68.81;98463.50;4861007;29;20190;-86
2021/12/28 03:08:21;;;;;;;29.80;12.27;;;;;;;9.02;69.39;98475.13;4861907;29;20180;-86
2021/12/28 03:10:48;;;;;;;24.93;12.50;;;;;;;8.97;69.74;98478.00;4861796;29;20681;-86
2021/12/28 03:13:21;;;;;;;41.40;15.30;;;;;;;9.07;69.52;98478.31;4872280;29;20533;-86
2021/12/28 03:15:47;;;;;;;27.53;13.27;;;;;;;9.14;68.84;98466.63;4861806;29;20197;-87
2021/12/28 03:18:12;;;;;;;28.97;13.03;;;;;;;9.08;68.79;98462.56;4861744;29;20201;-86
2021/12/28 03:20:38;;;;;;;28.17;13.03;;;;;;;9.02;68.61;98465.53;4861655;29;20178;-86
2021/12/28 03:23:04;;;;;;;34.97;13.90;;;;;;;9.04;68.71;98462.84;4861463;29;20263;-86
2021/12/28 03:25:30;;;;;;;27.27;12.17;;;;;;;9.10;68.01;98460.72;4862415;29;20199;-87
2021/12/28 03:27:56;;;;;;;32.47;12.20;;;;;;;9.16;67.83;98464.75;4860891;29;20203;-87
2021/12/28 03:30:22;;;;;;;29.33;12.33;;;;;;;9.01;67.77;98466.47;4861079;29;20206;-86
2021/12/28 03:32:47;;;;;;;23.03;12.23;;;;;;;9.02;67.74;98469.91;4861395;29;20211;-87
2021/12/28 03:35:14;;;;;;;26.73;11.13;;;;;;;8.97;68.08;98471.94;4861743;29;20181;-87
2021/12/28 03:37:41;;;;;;;23.27;11.33;;;;;;;8.93;67.98;98471.28;4860428;29;20193;-86
2021/12/28 03:40:10;;;;;;;35.73;11.57;;;;;;;8.87;68.11;98455.94;4853876;29;20204;-87
2021/12/28 03:42:36;;;;;;;29.10;11.13;;;;;;;8.86;67.98;98459.47;4844565;29;20185;-86
2021/12/28 03:45:03;;;;;;;25.97;13.17;;;;;;;8.83;67.90;98451.81;4861024;29;20181;-87
2021/12/28 03:47:29;;;;;;;21.13;11.37;;;;;;;8.75;68.14;98456.66;4861267;29;20187;-87
2021/12/28 03:49:54;;;;;;;24.27;10.33;;;;;;;8.85;68.13;98452.59;4856988;29;20198;-87
2021/12/28 03:52:20;;;;;;;19.03;9.73;;;;;;;8.89;68.21;98468.91;4841770;29;20268;-87
2021/12/28 03:54:45;;;;;;;21.07;9.97;;;;;;;8.88;68.42;98462.88;4843062;29;20271;-85
2021/12/28 03:57:10;;;;;;;30.73;13.00;;;;;;;8.74;68.00;98459.31;4842346;29;20653;-85
2021/12/28 03:59:36;;;;;;;24.87;11.40;;;;;;;8.76;67.87;98463.53;4841657;29;20185;-86
2021/12/28 04:02:03;;;;;;;39.93;15.43;;;;;;;8.67;68.10;98468.44;4840575;29;20611;-87
2021/12/28 04:04:28;;;;;;;63.30;23.27;;;;;;;8.70;68.16;98455.22;4853601;29;20195;-86
2021/12/28 04:06:53;;;;;;;62.67;23.87;;;;;;;8.72;68.54;98466.41;4858421;29;20271;-86
2021/12/28 04:09:33;;;;;;;60.80;25.03;;;;;;;8.71;68.74;98460.34;4860654;29;20184;-87
2021/12/28 04:11:59;;;;;;;60.33;21.30;;;;;;;8.52;69.95;98460.50;4861142;29;20645;-87
2021/12/28 04:14:24;;;;;;;45.93;19.07;;;;;;;8.61;69.61;98465.25;4860890;29;20267;-85
2021/12/28 04:16:50;;;;;;;38.83;15.67;;;;;;;8.53;70.49;98457.00;4860562;29;20181;-85
2021/12/28 04:19:15;;;;;;;29.57;14.40;;;;;;;8.32;70.65;98457.31;4860279;29;20641;-85
2021/12/28 04:21:41;;;;;;;38.93;14.83;;;;;;;8.39;70.93;98463.88;4860813;29;20187;-86
2021/12/28 04:24:06;;;;;;;50.37;16.97;;;;;;;8.54;70.88;98463.06;4860835;29;20184;-85
2021/12/28 04:26:31;;;;;;;33.53;15.07;;;;;;;8.66;69.86;98462.38;4859849;29;20636;-87
2021/12/28 04:28:57;;;;;;;32.13;16.23;;;;;;;8.57;69.57;98462.88;4860044;29;20815;-86
2021/12/28 04:31:22;;;;;;;31.43;13.87;;;;;;;8.34;69.61;98471.13;4859739;29;20211;-86
2021/12/28 04:33:48;;;;;;;30.90;14.67;;;;;;;8.41;70.44;98472.50;4859193;29;20643;-86
2021/12/28 04:36:15;;;;;;;20.40;11.33;;;;;;;8.60;69.89;98475.75;4860531;29;20215;-87
2021/12/28 04:38:44;;;;;;;26.50;11.37;;;;;;;8.40;70.48;98476.00;4863678;29;20195;-87
2021/12/28 04:41:11;;;;;;;19.00;10.07;;;;;;;8.51;70.85;98489.34;4863715;29;20169;-86
2021/12/28 04:43:38;;;;;;;27.93;13.00;;;;;;;8.62;70.55;98482.59;4862814;29;20262;-86
2021/12/28 04:46:05;;;;;;;31.20;11.67;;;;;;;8.62;70.17;98479.16;4863297;29;20206;-86
2021/12/28 04:48:31;;;;;;;24.03;11.53;;;;;;;8.68;70.55;98483.16;4878954;29;20195;-87
2021/12/28 04:51:04;;;;;;;32.60;11.60;;;;;;;8.74;70.08;98470.63;4861855;29;20221;-86
2021/12/28 04:53:30;;;;;;;29.17;13.77;;;;;;;8.61;70.01;98480.06;4862532;29;20279;-87
2021/12/28 04:55:56;;;;;;;27.77;14.70;;;;;;;8.52;70.73;98485.78;4862701;29;20270;-86
2021/12/28 04:58:21;;;;;;;30.53;12.43;;;;;;;8.45;71.01;98489.66;4879065;29;20542;-87
2021/12/28 05:00:49;;;;;;;29.47;14.33;;;;;;;8.49;71.15;98488.59;4879323;29;20191;-88
2021/12/28 05:03:16;;;;;;;35.57;13.50;;;;;;;8.52;70.46;98489.25;4878805;29;20198;-87
2021/12/28 05:05:44;;;;;;;34.57;15.20;;;;;;;8.56;69.80;98489.94;4862642;29;20550;-88
2021/12/28 05:08:12;;;;;;;31.87;13.37;;;;;;;8.53;69.40;98490.94;4866733;29;20563;-86
2021/12/28 05:10:39;;;;;;;32.77;13.87;;;;;;;8.52;69.75;98491.00;4862450;29;20188;-85
2021/12/28 05:13:05;;;;;;;37.40;14.37;;;;;;;8.38;70.88;98496.16;4863872;29;20205;-86
2021/12/28 05:15:31;;;;;;;27.47;13.07;;;;;;;8.25;71.06;98492.47;4864432;29;20242;-87
2021/12/28 05:17:56;;;;;;;21.87;10.87;;;;;;;8.26;71.50;98499.38;4863596;29;20286;-87
2021/12/28 05:20:22;;;;;;;21.97;11.57;;;;;;;8.22;71.93;98500.47;4882371;29;20268;-87
2021/12/28 05:22:47;;;;;;;15.13;8.40;;;;;;;8.26;72.51;98510.66;4882350;29;20191;-86
2021/12/28 05:25:12;;;;;;;23.87;10.30;;;;;;;8.26;73.42;98507.19;4865945;29;20698;-87
2021/12/28 05:27:38;;;;;;;14.30;8.23;;;;;;;8.34;72.98;98505.91;4882588;29;20219;-87
2021/12/28 05:30:33;;;;;;;15.40;8.07;;;;;;;8.33;73.38;98506.81;4865872;29;20256;-86
2021/12/28 05:32:58;;;;;;;51.47;21.93;;;;;;;8.40;73.13;98509.97;4882011;29;20203;-85
2021/12/28 05:35:24;;;;;;;44.83;21.13;;;;;;;8.45;71.73;98526.22;4865487;29;20243;-85
2021/12/28 05:37:50;;;;;;;28.23;15.30;;;;;;;8.50;71.26;98513.75;4865739;29;20220;-87
2021/12/28 05:40:17;;;;;;;32.07;12.87;;;;;;;8.54;70.43;98517.91;4881769;29;20571;-86
2021/12/28 05:42:42;;;;;;;42.03;16.70;;;;;;;8.50;70.14;98519.84;4881745;29;20195;-87
2021/12/28 05:45:08;;;;;;;36.97;15.17;;;;;;;8.43;69.24;98522.84;4865592;29;20713;-87
2021/12/28 05:47:34;;;;;;;31.70;14.63;;;;;;;8.38;69.35;98524.88;4881682;29;20188;-86
2021/12/28 05:50:01;;;;;;;34.13;18.33;;;;;;;8.31;69.73;98521.72;4881863;29;20243;-86
2021/12/28 05:52:26;;;;;;;33.47;15.53;;;;;;;8.33;69.44;98526.88;4865282;29;20574;-86
2021/12/28 05:54:52;;;;;;;32.87;17.07;;;;;;;8.34;69.36;98536.38;4881689;29;20199;-86
2021/12/28 05:57:17;;;;;;;42.87;15.50;;;;;;;8.35;69.09;98535.47;4881425;29;20189;-86
2021/12/28 05:59:43;;;;;;;35.97;14.30;;;;;;;8.25;69.28;98529.88;4881440;29;20195;-86
2021/12/28 06:02:08;;;;;;;33.50;14.20;;;;;;;8.30;69.52;98533.13;4874059;29;20229;-85
2021/12/28 06:04:35;;;;;;;30.27;12.47;;;;;;;8.45;69.02;98531.44;4868156;29;20255;-85
2021/12/28 06:07:04;;;;;;;22.03;11.00;;;;;;;8.44;68.97;98540.19;4865000;29;20199;-86
2021/12/28 06:09:31;;;;;;;23.73;12.30;;;;;;;8.41;69.04;98535.97;4881207;29;20240;-86
2021/12/28 06:11:56;;;;;;;27.07;10.83;;;;;;;8.45;68.75;98529.69;4879905;29;20669;-85
2021/12/28 06:14:22;;;;;;;19.60;10.63;;;;;;;8.39;69.00;98539.59;4862438;29;20275;-86
2021/12/28 06:16:47;;;;;;;19.17;9.87;;;;;;;8.33;68.82;98542.56;4879516;29;20203;-86
2021/12/28 06:19:12;;;;;;;23.30;12.10;;;;;;;8.23;70.07;98551.78;4880531;29;20188;-87
2021/12/28 06:21:38;;;;;;;28.40;13.47;;;;;;;8.27;69.81;98548.09;4864081;29;20265;-86
2021/12/28 06:24:05;;;;;;;31.97;14.30;;;;;;;8.33;70.09;98547.78;4880305;29;20260;-87
2021/12/28 06:26:33;;;;;;;44.27;19.77;;;;;;;8.39;69.57;98544.81;4879499;29;20187;-87
2021/12/28 06:29:01;;;;;;;54.30;20.37;;;;;;;8.38;69.56;98537.94;4872939;29;20192;-88
2021/12/28 06:31:28;;;;;;;48.30;20.03;;;;;;;8.44;69.33;98545.41;4859478;29;20675;-89
2021/12/28 06:33:57;;;;;;;43.43;19.17;;;;;;;8.45;68.99;98547.13;4855517;29;20187;-87
2021/12/28 06:36:26;;;;;;;44.10;17.00;;;;;;;8.47;68.56;98545.25;4864901;29;20206;-88
2021/12/28 06:38:53;;;;;;;37.73;13.00;;;;;;;8.59;67.17;98544.63;4873215;29;20259;-88
2021/12/28 06:41:21;;;;;;;27.57;12.43;;;;;;;8.55;67.43;98550.91;4864511;29;20196;-87
2021/12/28 06:43:48;;;;;;;44.97;18.20;;;;;;;8.35;67.60;98540.69;4864045;29;20198;-88
2021/12/28 06:46:15;;;;;;;35.33;17.10;;;;;;;8.20;67.63;98546.72;4864409;29;20255;-88
2021/12/28 06:48:42;;;;;;;46.97;18.93;;;;;;;8.14;68.88;98553.09;4848212;29;20192;-88
2021/12/28 06:51:13;;;;;;;45.43;20.20;;;;;;;8.23;69.03;98551.78;4864645;29;20184;-88
2021/12/28 06:53:42;;;;;;;33.97;17.67;;;;;;;8.33;68.59;98547.78;4880982;29;20259;-87
2021/12/28 06:56:12;;;;;;;38.77;15.83;;;;;;;8.45;68.43;98552.34;4867286;29;20188;-84
2021/12/28 06:58:42;;;;;;;32.53;15.70;;;;;;;8.38;68.55;98567.50;4871214;29;20206;-88
2021/12/28 07:01:08;;;;;;;31.77;14.80;;;;;;;8.33;69.72;98560.84;4880569;29;20262;-87
2021/12/28 07:03:36;;;;;;;25.03;13.53;;;;;;;8.43;68.87;98554.19;4863858;29;20189;-88
2021/12/28 07:06:03;;;;;;;41.53;16.87;;;;;;;8.55;69.11;98554.38;4879615;29;20180;-88
2021/12/28 07:08:29;;;;;;;32.53;13.10;;;;;;;8.61;69.25;98559.28;4880143;29;20206;-88
2021/12/28 07:10:55;;;;;;;19.13;8.57;;;;;;;8.52;68.65;98543.25;4864172;29;20619;-88
2021/12/28 07:13:22;;;;;;;22.50;9.43;;;;;;;8.60;69.42;98552.38;4863636;29;20758;-88
2021/12/28 07:15:49;;;;;;;17.27;8.07;;;;;;;8.71;69.39;98543.09;4866119;29;20215;-87
2021/12/28 07:18:16;;;;;;;13.40;6.97;;;;;;;8.75;70.07;98535.03;4875007;29;20192;-88
2021/12/28 07:20:42;;;;;;;11.97;6.07;;;;;;;8.77;71.20;98543.63;4874417;29;20203;-87
2021/12/28 07:23:09;;;;;;;20.53;7.53;;;;;;;8.70;72.20;98542.25;4871144;29;20271;-87
2021/12/28 07:25:43;;;;;;;15.37;7.80;;;;;;;8.68;73.75;98538.03;4869091;29;20184;-87
2021/12/28 07:28:10;;;;;;;26.43;8.47;;;;;;;8.82;74.16;98546.81;4859271;29;20213;-87
2021/12/28 07:30:38;;;;;;;35.93;17.60;;;;;;;8.56;75.30;98545.63;4871705;29;20279;-88
2021/12/28 07:33:05;;;;;;;33.70;16.63;;;;;;;8.61;75.06;98553.22;4868429;29;20738;-87
2021/12/28 07:35:32;;;;;;;38.17;19.87;;;;;;;8.70;73.97;98557.91;4850729;29;20189;-87
2021/12/28 07:38:03;;;;;;;54.43;23.63;;;;;;;8.86;73.09;98552.69;4858297;29;20203;-86
2021/12/28 07:40:30;;;;;;;50.87;22.90;;;;;;;9.02;71.02;98551.78;4875544;29;20235;-84
2021/12/28 07:42:57;;;;;;;45.70;22.67;;;;;;;9.02;71.96;98556.16;4870646;29;20610;-84
2021/12/28 07:45:23;;;;;;;57.13;25.57;;;;;;;9.03;72.17;98556.09;4860784;29;20643;-89
2021/12/28 07:47:49;;;;;;;54.83;23.53;;;;;;;9.15;72.20;98555.41;4878904;29;20255;-87
2021/12/28 07:50:20;;;;;;;53.53;24.00;;;;;;;9.16;71.38;98559.72;4879307;29;20213;-87
2021/12/28 07:52:47;;;;;;;52.87;23.97;;;;;;;9.31;70.30;98565.00;4863523;29;20214;-88
2021/12/28 07:55:15;;;;;;;48.03;23.20;;;;;;;9.33;69.89;98561.34;4864067;29;20224;-88
2021/12/28 07:57:40;;;;;;;39.90;19.30;;;;;;;9.40;69.94;98559.25;4862008;29;20192;-88
2021/12/28 08:00:25;;;;;;;52.33;22.57;;;;;;;9.47;70.36;98577.13;4878469;29;20196;-88
2021/12/28 08:02:52;;;;;;;42.50;22.83;;;;;;;9.46;70.91;98574.59;4862390;29;20185;-88
2021/12/28 08:05:19;;;;;;;50.47;23.40;;;;;;;9.59;70.91;98575.59;4863157;29;20533;-87
2021/12/28 08:07:46;;;;;;;59.93;25.77;;;;;;;9.68;71.08;98578.50;4880068;29;20183;-87
2021/12/28 08:10:15;;;;;;;51.50;21.13;;;;;;;9.77;70.86;98564.88;4863291;29;20220;-88
2021/12/28 08:12:43;;;;;;;57.13;21.90;;;;;;;9.92;70.37;98562.31;4862328;29;20205;-88
2021/12/28 08:15:10;;;;;;;37.73;18.00;;;;;;;9.99;70.44;98563.63;4862982;29;20550;-88
2021/12/28 08:17:37;;;;;;;42.00;21.40;;;;;;;10.01;71.07;98557.34;4858543;29;20646;-88
2021/12/28 08:20:06;;;;;;;35.67;17.37;;;;;;;10.03;70.97;98554.66;4880146;29;20266;-87
2021/12/28 08:22:33;;;;;;;31.40;15.20;;;;;;;10.10;71.56;98554.19;4862900;29;20261;-88
2021/12/28 08:25:00;;;;;;;37.33;18.03;;;;;;;10.22;71.72;98547.44;4858734;29;20195;-88
2021/12/28 08:27:27;;;;;;;37.07;16.90;;;;;;;10.30;71.66;98540.78;4862574;29;20701;-88
2021/12/28 08:29:54;;;;;;;33.17;16.57;;;;;;;10.44;71.08;98540.78;4863573;29;20254;-88
2021/12/28 08:32:20;;;;;;;46.20;20.43;;;;;;;10.54;70.98;98541.03;4862905;29;20212;-87
2021/12/28 08:34:47;;;;;;;42.17;20.50;;;;;;;10.66;70.80;98539.47;4873389;29;20210;-88
2021/12/28 08:37:13;;;;;;;46.10;21.50;;;;;;;10.69;71.01;98534.03;4898195;29;20182;-88
2021/12/28 08:39:38;;;;;;;47.40;21.47;;;;;;;10.76;71.02;98540.56;4874242;29;20335;-88
2021/12/28 08:42:06;;;;;;;39.03;18.73;;;;;;;10.84;71.21;98527.81;4856641;29;20192;-87
2021/12/28 08:44:33;;;;;;;37.67;18.07;;;;;;;10.93;70.93;98529.84;4861805;29;20255;-87
2021/12/28 08:46:59;;;;;;;39.60;17.97;;;;;;;11.04;70.95;98530.00;4860287;29;20543;-88
2021/12/28 08:49:27;;;;;;;37.87;16.47;;;;;;;11.15;71.19;98527.53;4864211;29;20185;-88
2021/12/28 08:51:54;;;;;;;31.10;13.83;;;;;;;11.22;70.92;98527.97;4863978;29;20287;-88
2021/12/28 08:54:20;;;;;;;23.67;11.23;;;;;;;11.32;70.07;98529.91;4858653;29;20189;-88
2021/12/28 08:56:50;;;;;;;30.17;14.40;;;;;;;11.43;69.48;98526.56;4861572;29;20267;-88
2021/12/28 08:59:18;;;;;;;26.67;12.67;;;;;;;11.49;69.33;98534.06;4859364;29;20453;-87
2021/12/28 09:01:48;;;;;;;37.53;18.17;;;;;;;11.56;69.20;98530.91;4863211;29;20262;-88
2021/12/28 09:04:15;;;;;;;50.33;21.67;;;;;;;11.66;69.41;98529.38;4861238;29;20214;-88
2021/12/28 09:06:42;;;;;;;48.67;23.33;;;;;;;11.77;69.22;98525.22;4857146;29;20637;-88
2021/12/28 09:09:08;;;;;;;54.40;27.03;;;;;;;11.92;68.91;98518.94;4856892;29;20181;-88
2021/12/28 09:11:35;;;;;;;39.00;16.80;;;;;;;12.04;68.23;98510.22;4861693;29;20250;-89
2021/12/28 09:14:03;;;;;;;35.27;16.07;;;;;;;12.07;67.38;98513.50;4861637;29;20535;-87
2021/12/28 09:16:30;;;;;;;45.47;19.90;;;;;;;12.10;67.53;98499.31;4857157;29;20300;-88
2021/12/28 09:18:57;;;;;;;29.10;16.47;;;;;;;12.26;67.79;98497.31;4862278;29;20216;-88
2021/12/28 09:21:24;;;;;;;37.70;17.83;;;;;;;12.46;67.51;98493.28;4860051;29;20228;-89
2021/12/28 09:23:58;;;;;;;34.90;16.07;;;;;;;12.57;67.55;98485.47;4863325;29;20201;-89
2021/12/28 09:26:25;;;;;;;38.00;15.93;;;;;;;12.79;66.21;98496.13;4862658;29;20192;-89
2021/12/28 09:28:52;;;;;;;40.47;17.70;;;;;;;12.98;66.80;98488.59;4862858;29;20194;-88
2021/12/28 09:31:19;;;;;;;36.30;16.23;;;;;;;13.07;65.65;98492.38;4858303;29;20193;-87
2021/12/28 09:33:45;;;;;;;23.33;13.00;;;;;;;13.09;64.89;98480.81;4862354;29;20199;-88
2021/12/28 09:36:14;;;;;;;28.17;13.23;;;;;;;13.33;65.12;98467.63;4862661;29;20183;-87
2021/12/28 09:38:43;;;;;;;29.13;13.90;;;;;;;13.54;64.53;98468.66;4860924;29;20710;-87
2021/12/28 09:41:11;;;;;;;31.47;13.53;;;;;;;13.75;64.05;98460.94;4858572;29;20246;-85
2021/12/28 09:43:38;;;;;;;30.50;14.00;;;;;;;13.88;62.95;98457.25;4858171;29;20227;-87
2021/12/28 09:46:05;;;;;;;31.20;14.77;;;;;;;14.03;62.91;98456.06;4859833;29;20612;-87
2021/12/28 09:48:32;;;;;;;27.83;12.93;;;;;;;14.18;62.83;98450.56;4860712;29;20275;-87
2021/12/28 09:51:00;;;;;;;32.60;14.37;;;;;;;14.42;62.47;98446.03;4867622;29;20183;-88
2021/12/28 09:53:27;;;;;;;29.87;14.80;;;;;;;14.52;62.11;98452.22;4874667;29;20257;-88
2021/12/28 09:55:54;;;;;;;33.13;14.67;;;;;;;14.54;61.88;98455.63;4860804;29;20602;-88
2021/12/28 09:58:20;;;;;;;34.23;17.43;;;;;;;14.71;62.28;98449.81;4860739;29;20279;-88
2021/12/28 10:00:45;;;;;;;42.10;18.00;;;;;;;14.87;61.32;98452.91;4861760;29;20261;-88
2021/12/28 10:03:11;;;;;;;38.90;19.07;;;;;;;15.17;60.94;98439.03;4860409;29;20198;-88
2021/12/28 10:05:36;;;;;;;40.83;19.10;;;;;;;15.33;59.82;98437.63;4862027;29;20205;-88
2021/12/28 10:08:05;;;;;;;41.30;19.70;;;;;;;15.46;59.18;98434.00;4861979;29;20240;-88
2021/12/28 10:10:37;;;;;;;37.37;19.37;;;;;;;15.73;58.68;98436.94;4858047;29;20186;-88
2021/12/28 10:13:08;;;;;;;49.07;22.53;;;;;;;15.92;58.05;98439.72;4861681;29;20214;-88
2021/12/28 10:15:39;;;;;;;40.60;17.57;;;;;;;16.23;56.96;98438.75;4861990;29;20199;-87
2021/12/28 10:18:08;;;;;;;34.60;16.57;;;;;;;16.41;56.67;98433.66;4862752;29;20186;-89
2021/12/28 10:20:41;;;;;;;42.50;18.23;;;;;;;16.48;55.98;98435.63;4862964;29;20644;-88
2021/12/28 10:23:10;;;;;;;50.50;21.20;;;;;;;16.48;55.51;98434.81;4862907;29;20200;-89
2021/12/28 10:25:40;;;;;;;45.93;21.07;;;;;;;16.53;54.58;98428.16;4862255;29;20198;-89
2021/12/28 10:28:12;;;;;;;51.17;25.50;;;;;;;16.64;54.46;98431.69;4862520;29;20193;-89
2021/12/28 10:30:48;;;;;;;55.20;28.27;;;;;;;16.50;53.80;98425.78;4845429;29;20198;-88
2021/12/28 10:33:16;;;;;;;67.23;33.43;;;;;;;16.46;54.02;98427.00;4859708;29;20218;-88
2021/12/28 10:35:44;;;;;;;78.40;34.70;;;;;;;16.19;54.09;98429.44;4859656;29;20201;-88
2021/12/28 10:38:19;;;;;;;65.67;31.27;;;;;;;16.36;54.34;98420.00;4862301;29;20626;-88
2021/12/28 10:40:51;;;;;;;59.13;27.33;;;;;;;16.34;53.56;98422.78;4861930;29;20206;-88
2021/12/28 10:43:25;;;;;;;50.83;24.47;;;;;;;16.41;54.14;98420.44;4862686;29;20254;-88
2021/12/28 10:46:00;;;;;;;53.33;25.43;;;;;;;16.46;54.30;98416.41;4862610;29;20182;-88
2021/12/28 10:48:38;;;;;;;49.43;24.77;;;;;;;16.59;54.06;98419.69;4862067;29;20694;-89
2021/12/28 10:51:13;;;;;;;58.70;25.23;;;;;;;16.64;53.54;98413.19;4862429;29;20171;-88
2021/12/28 10:54:06;;;;;;;57.93;27.57;;;;;;;16.67;52.94;98411.06;4862668;29;20178;-88
2021/12/28 10:56:53;;;;;;;50.07;26.17;;;;;;;16.79;53.25;98411.81;4861349;29;20265;-87
2021/12/28 10:59:27;;;;;;;58.47;23.47;;;;;;;16.64;53.15;98402.59;4862397;29;20335;-88
2021/12/28 11:01:54;;;;;;;33.43;16.83;;;;;;;16.80;52.96;98405.53;4862312;29;20255;-87
2021/12/28 11:04:20;;;;;;;32.63;17.27;;;;;;;16.61;53.18;98402.84;4862003;29;20185;-87
2021/12/28 11:06:49;;;;;;;35.00;17.37;;;;;;;16.46;53.39;98395.25;4862201;29;20179;-87
2021/12/28 11:09:24;;;;;;;36.07;16.33;;;;;;;16.64;53.28;98400.75;4861018;29;20190;-87
2021/12/28 11:11:52;;;;;;;34.20;18.07;;;;;;;16.67;53.06;98391.72;4860839;29;20215;-87
2021/12/28 11:14:21;;;;;;;40.83;20.07;;;;;;;16.79;53.05;98390.63;4860456;29;20622;-88
2021/12/28 11:16:56;;;;;;;19.27;8.37;;;;;;;16.78;53.17;98387.16;4861081;29;20254;-87
2021/12/28 11:19:28;;;;;;;15.10;6.80;;;;;;;16.69;53.39;98395.06;4861003;29;20180;-87
2021/12/28 11:21:56;;;;;;;16.93;6.90;;;;;;;16.69;53.27;98395.91;4860388;29;20612;-87
2021/12/28 11:24:21;;;;;;;11.87;5.87;;;;;;;16.80;53.40;98385.19;4861346;29;20271;-87
2021/12/28 11:26:49;;;;;;;11.93;6.77;;;;;;;16.92;52.81;98383.25;4862053;29;20226;-87
2021/12/28 11:29:23;;;;;;;18.40;7.80;;;;;;;16.98;52.86;98377.41;4861538;29;20188;-87
2021/12/28 11:31:54;;;;;;;17.70;7.80;;;;;;;16.91;53.07;98374.47;4861594;29;20238;-87
2021/12/28 11:34:25;;;;;;;11.20;6.47;;;;;;;16.80;53.58;98377.25;4861536;29;20191;-87
2021/12/28 11:36:57;;;;;;;14.03;5.73;;;;;;;16.87;53.33;98377.53;4862029;29;20175;-88